sensor_id;sensor_type;location;lat;lon;timestamp;P1;durP1;ratioP1;P2;durP2;ratioP2
35225;SDS011;21813;49.686;21.766;2023-03-22T00:01:16;167.30;;;95.07;;
35225;SDS011;21813;49.686;21.766;2023-03-22T00:03:48;180.88;;;97.32;;
35225;SDS011;21813;49.686;21.766;2023-03-22T00:06:15;172.43;;;93.03;;
35225;SDS011;21813;49.686;21.766;2023-03-22T00:08:43;165.48;;;92.88;;
35225;SDS011;21813;49.686;21.766;2023-03-22T00:11:10;152.85;;;91.00;;
35225;SDS011;21813;49.686;21.766;2023-03-22T00:13:37;152.77;;;89.10;;
35225;SDS011;21813;49.686;21.766;2023-03-22T00:16:03;152.82;;;87.13;;
35225;SDS011;21813;49.686;21.766;2023-03-22T00:18:30;164.38;;;91.78;;
35225;SDS011;21813;49.686;21.766;2023-03-22T00:20:56;161.18;;;89.55;;
35225;SDS011;21813;49.686;21.766;2023-03-22T00:23:23;159.85;;;91.57;;
35225;SDS011;21813;49.686;21.766;2023-03-22T00:25:50;154.95;;;87.30;;
35225;SDS011;21813;49.686;21.766;2023-03-22T00:28:17;166.05;;;90.55;;
35225;SDS011;21813;49.686;21.766;2023-03-22T00:30:50;155.95;;;87.30;;
35225;SDS011;21813;49.686;21.766;2023-03-22T00:33:19;165.65;;;88.10;;
35225;SDS011;21813;49.686;21.766;2023-03-22T00:35:51;158.82;;;88.65;;
35225;SDS011;21813;49.686;21.766;2023-03-22T00:38:20;160.25;;;87.43;;
35225;SDS011;21813;49.686;21.766;2023-03-22T00:40:46;144.55;;;82.07;;
35225;SDS011;21813;49.686;21.766;2023-03-22T00:43:13;158.13;;;75.82;;
35225;SDS011;21813;49.686;21.766;2023-03-22T00:45:38;184.98;;;75.80;;
35225;SDS011;21813;49.686;21.766;2023-03-22T00:48:09;227.73;;;74.90;;
35225;SDS011;21813;49.686;21.766;2023-03-22T00:50:36;230.73;;;71.85;;
35225;SDS011;21813;49.686;21.766;2023-03-22T00:53:03;195.02;;;70.50;;
35225;SDS011;21813;49.686;21.766;2023-03-22T00:55:29;240.15;;;69.75;;
35225;SDS011;21813;49.686;21.766;2023-03-22T00:57:57;178.90;;;65.65;;
35225;SDS011;21813;49.686;21.766;2023-03-22T01:00:23;246.13;;;69.03;;
35225;SDS011;21813;49.686;21.766;2023-03-22T01:02:49;222.05;;;66.78;;
35225;SDS011;21813;49.686;21.766;2023-03-22T01:05:17;147.35;;;65.80;;
35225;SDS011;21813;49.686;21.766;2023-03-22T01:07:46;205.30;;;67.32;;
35225;SDS011;21813;49.686;21.766;2023-03-22T01:10:16;191.60;;;68.15;;
35225;SDS011;21813;49.686;21.766;2023-03-22T01:12:44;172.70;;;66.03;;
35225;SDS011;21813;49.686;21.766;2023-03-22T01:15:10;184.48;;;66.03;;
35225;SDS011;21813;49.686;21.766;2023-03-22T01:17:36;148.50;;;64.97;;
35225;SDS011;21813;49.686;21.766;2023-03-22T01:20:02;146.10;;;68.03;;
35225;SDS011;21813;49.686;21.766;2023-03-22T01:22:29;144.40;;;69.38;;
35225;SDS011;21813;49.686;21.766;2023-03-22T01:24:55;149.63;;;72.90;;
35225;SDS011;21813;49.686;21.766;2023-03-22T01:27:21;155.88;;;76.75;;
35225;SDS011;21813;49.686;21.766;2023-03-22T01:29:46;156.65;;;76.85;;
35225;SDS011;21813;49.686;21.766;2023-03-22T01:32:12;161.30;;;80.10;;
35225;SDS011;21813;49.686;21.766;2023-03-22T01:34:38;146.32;;;77.57;;
35225;SDS011;21813;49.686;21.766;2023-03-22T01:37:04;152.00;;;76.10;;
35225;SDS011;21813;49.686;21.766;2023-03-22T01:39:29;173.50;;;82.20;;
35225;SDS011;21813;49.686;21.766;2023-03-22T01:41:57;187.43;;;82.20;;
35225;SDS011;21813;49.686;21.766;2023-03-22T01:44:23;184.90;;;84.43;;
35225;SDS011;21813;49.686;21.766;2023-03-22T01:46:51;176.52;;;83.25;;
35225;SDS011;21813;49.686;21.766;2023-03-22T01:49:26;237.38;;;89.05;;
35225;SDS011;21813;49.686;21.766;2023-03-22T01:52:03;221.05;;;86.05;;
35225;SDS011;21813;49.686;21.766;2023-03-22T01:54:34;356.33;;;81.85;;
35225;SDS011;21813;49.686;21.766;2023-03-22T01:57:10;205.70;;;82.50;;
35225;SDS011;21813;49.686;21.766;2023-03-22T01:59:36;230.40;;;74.88;;
35225;SDS011;21813;49.686;21.766;2023-03-22T02:02:04;391.88;;;82.68;;
35225;SDS011;21813;49.686;21.766;2023-03-22T02:04:32;278.48;;;84.82;;
35225;SDS011;21813;49.686;21.766;2023-03-22T02:07:05;224.35;;;79.55;;
35225;SDS011;21813;49.686;21.766;2023-03-22T02:09:42;326.58;;;88.95;;
35225;SDS011;21813;49.686;21.766;2023-03-22T02:18:44;305.63;;;89.05;;
35225;SDS011;21813;49.686;21.766;2023-03-22T02:23:34;272.13;;;84.80;;
35225;SDS011;21813;49.686;21.766;2023-03-22T02:29:05;322.58;;;87.40;;
35225;SDS011;21813;49.686;21.766;2023-03-22T02:31:57;354.30;;;85.10;;
35225;SDS011;21813;49.686;21.766;2023-03-22T02:43:32;257.35;;;59.80;;
35225;SDS011;21813;49.686;21.766;2023-03-22T02:45:38;241.68;;;60.42;;
35225;SDS011;21813;49.686;21.766;2023-03-22T02:48:16;188.68;;;50.03;;
35225;SDS011;21813;49.686;21.766;2023-03-22T02:50:55;173.77;;;48.78;;
35225;SDS011;21813;49.686;21.766;2023-03-22T02:53:32;187.75;;;47.22;;
35225;SDS011;21813;49.686;21.766;2023-03-22T02:56:22;185.23;;;49.97;;
35225;SDS011;21813;49.686;21.766;2023-03-22T02:59:00;161.40;;;46.65;;
35225;SDS011;21813;49.686;21.766;2023-03-22T03:01:33;127.80;;;44.78;;
35225;SDS011;21813;49.686;21.766;2023-03-22T03:04:04;133.60;;;42.83;;
35225;SDS011;21813;49.686;21.766;2023-03-22T03:06:44;176.75;;;43.70;;
35225;SDS011;21813;49.686;21.766;2023-03-22T03:09:13;161.23;;;42.15;;
35225;SDS011;21813;49.686;21.766;2023-03-22T03:11:50;162.43;;;40.95;;
35225;SDS011;21813;49.686;21.766;2023-03-22T03:14:29;122.90;;;38.53;;
35225;SDS011;21813;49.686;21.766;2023-03-22T03:17:12;127.68;;;40.55;;
35225;SDS011;21813;49.686;21.766;2023-03-22T03:23:01;132.80;;;42.25;;
35225;SDS011;21813;49.686;21.766;2023-03-22T03:28:25;166.80;;;53.28;;
35225;SDS011;21813;49.686;21.766;2023-03-22T03:33:36;121.95;;;40.33;;
35225;SDS011;21813;49.686;21.766;2023-03-22T03:36:09;113.18;;;37.83;;
35225;SDS011;21813;49.686;21.766;2023-03-22T03:38:41;113.18;;;38.30;;
35225;SDS011;21813;49.686;21.766;2023-03-22T03:41:17;108.13;;;36.60;;
35225;SDS011;21813;49.686;21.766;2023-03-22T03:43:47;97.45;;;35.22;;
35225;SDS011;21813;49.686;21.766;2023-03-22T03:46:14;112.07;;;40.33;;
35225;SDS011;21813;49.686;21.766;2023-03-22T03:48:41;113.68;;;39.72;;
35225;SDS011;21813;49.686;21.766;2023-03-22T03:51:11;106.47;;;37.17;;
35225;SDS011;21813;49.686;21.766;2023-03-22T03:53:37;95.90;;;34.25;;
35225;SDS011;21813;49.686;21.766;2023-03-22T03:56:03;99.97;;;35.10;;
35225;SDS011;21813;49.686;21.766;2023-03-22T03:58:30;111.63;;;40.10;;
35225;SDS011;21813;49.686;21.766;2023-03-22T04:00:55;108.60;;;38.30;;
35225;SDS011;21813;49.686;21.766;2023-03-22T04:03:22;103.47;;;36.40;;
35225;SDS011;21813;49.686;21.766;2023-03-22T04:05:48;100.25;;;37.17;;
35225;SDS011;21813;49.686;21.766;2023-03-22T04:08:16;100.22;;;37.38;;
35225;SDS011;21813;49.686;21.766;2023-03-22T04:10:41;95.45;;;36.83;;
35225;SDS011;21813;49.686;21.766;2023-03-22T04:13:09;109.20;;;42.15;;
35225;SDS011;21813;49.686;21.766;2023-03-22T04:15:35;109.40;;;42.55;;
35225;SDS011;21813;49.686;21.766;2023-03-22T04:18:02;124.20;;;43.50;;
35225;SDS011;21813;49.686;21.766;2023-03-22T04:20:28;102.65;;;40.78;;
35225;SDS011;21813;49.686;21.766;2023-03-22T04:22:54;88.75;;;35.33;;
35225;SDS011;21813;49.686;21.766;2023-03-22T04:25:31;93.57;;;36.25;;
35225;SDS011;21813;49.686;21.766;2023-03-22T04:27:59;92.85;;;37.90;;
35225;SDS011;21813;49.686;21.766;2023-03-22T04:30:24;95.55;;;37.05;;
35225;SDS011;21813;49.686;21.766;2023-03-22T04:32:51;95.28;;;39.67;;
35225;SDS011;21813;49.686;21.766;2023-03-22T04:35:17;87.35;;;37.20;;
35225;SDS011;21813;49.686;21.766;2023-03-22T04:37:45;95.80;;;37.50;;
35225;SDS011;21813;49.686;21.766;2023-03-22T04:40:11;94.30;;;38.17;;
35225;SDS011;21813;49.686;21.766;2023-03-22T04:42:51;92.43;;;38.05;;
35225;SDS011;21813;49.686;21.766;2023-03-22T04:45:24;81.10;;;32.90;;
35225;SDS011;21813;49.686;21.766;2023-03-22T04:48:09;79.85;;;35.00;;
35225;SDS011;21813;49.686;21.766;2023-03-22T04:50:35;86.10;;;36.15;;
35225;SDS011;21813;49.686;21.766;2023-03-22T04:53:02;88.85;;;36.47;;
35225;SDS011;21813;49.686;21.766;2023-03-22T04:55:34;90.15;;;36.05;;
35225;SDS011;21813;49.686;21.766;2023-03-22T04:58:18;91.55;;;35.15;;
35225;SDS011;21813;49.686;21.766;2023-03-22T05:00:58;76.65;;;32.75;;
35225;SDS011;21813;49.686;21.766;2023-03-22T05:03:24;76.57;;;31.65;;
35225;SDS011;21813;49.686;21.766;2023-03-22T05:05:57;74.28;;;29.63;;
35225;SDS011;21813;49.686;21.766;2023-03-22T05:08:37;74.18;;;32.40;;
35225;SDS011;21813;49.686;21.766;2023-03-22T05:11:11;83.10;;;30.80;;
35225;SDS011;21813;49.686;21.766;2023-03-22T05:14:05;84.97;;;31.60;;
35225;SDS011;21813;49.686;21.766;2023-03-22T05:16:34;96.20;;;34.55;;
35225;SDS011;21813;49.686;21.766;2023-03-22T05:19:01;79.60;;;31.90;;
35225;SDS011;21813;49.686;21.766;2023-03-22T05:21:28;92.50;;;33.78;;
35225;SDS011;21813;49.686;21.766;2023-03-22T05:24:03;94.22;;;34.60;;
35225;SDS011;21813;49.686;21.766;2023-03-22T05:26:29;83.95;;;33.55;;
35225;SDS011;21813;49.686;21.766;2023-03-22T05:28:55;86.90;;;31.83;;
35225;SDS011;21813;49.686;21.766;2023-03-22T05:31:21;83.88;;;34.17;;
35225;SDS011;21813;49.686;21.766;2023-03-22T05:33:49;97.13;;;37.35;;
35225;SDS011;21813;49.686;21.766;2023-03-22T05:36:16;96.75;;;37.67;;
35225;SDS011;21813;49.686;21.766;2023-03-22T05:38:45;94.38;;;35.13;;
35225;SDS011;21813;49.686;21.766;2023-03-22T05:41:11;90.55;;;34.97;;
35225;SDS011;21813;49.686;21.766;2023-03-22T05:43:39;95.22;;;35.67;;
35225;SDS011;21813;49.686;21.766;2023-03-22T05:46:06;85.75;;;32.25;;
35225;SDS011;21813;49.686;21.766;2023-03-22T05:48:34;103.57;;;34.85;;
35225;SDS011;21813;49.686;21.766;2023-03-22T05:51:00;94.50;;;36.58;;
35225;SDS011;21813;49.686;21.766;2023-03-22T05:53:28;92.20;;;32.20;;
35225;SDS011;21813;49.686;21.766;2023-03-22T05:55:56;109.70;;;35.10;;
35225;SDS011;21813;49.686;21.766;2023-03-22T05:58:32;96.60;;;31.92;;
35225;SDS011;21813;49.686;21.766;2023-03-22T06:01:03;108.45;;;35.72;;
35225;SDS011;21813;49.686;21.766;2023-03-22T06:03:32;108.32;;;35.22;;
35225;SDS011;21813;49.686;21.766;2023-03-22T06:05:58;96.07;;;33.25;;
35225;SDS011;21813;49.686;21.766;2023-03-22T06:08:25;98.35;;;33.72;;
35225;SDS011;21813;49.686;21.766;2023-03-22T06:10:50;71.28;;;27.33;;
35225;SDS011;21813;49.686;21.766;2023-03-22T06:13:19;68.40;;;27.65;;
35225;SDS011;21813;49.686;21.766;2023-03-22T06:15:45;71.07;;;28.40;;
35225;SDS011;21813;49.686;21.766;2023-03-22T06:18:11;78.20;;;30.45;;
35225;SDS011;21813;49.686;21.766;2023-03-22T06:20:37;71.40;;;31.42;;
35225;SDS011;21813;49.686;21.766;2023-03-22T06:23:05;78.18;;;31.85;;
35225;SDS011;21813;49.686;21.766;2023-03-22T06:25:31;80.70;;;31.73;;
35225;SDS011;21813;49.686;21.766;2023-03-22T06:27:59;75.80;;;32.63;;
35225;SDS011;21813;49.686;21.766;2023-03-22T06:30:25;81.82;;;33.05;;
35225;SDS011;21813;49.686;21.766;2023-03-22T06:32:59;77.78;;;32.67;;
35225;SDS011;21813;49.686;21.766;2023-03-22T06:35:29;71.80;;;32.38;;
35225;SDS011;21813;49.686;21.766;2023-03-22T06:37:56;68.22;;;30.13;;
35225;SDS011;21813;49.686;21.766;2023-03-22T06:40:22;64.82;;;30.48;;
35225;SDS011;21813;49.686;21.766;2023-03-22T06:42:49;63.67;;;28.83;;
35225;SDS011;21813;49.686;21.766;2023-03-22T06:45:15;60.25;;;27.45;;
35225;SDS011;21813;49.686;21.766;2023-03-22T06:47:42;66.03;;;30.95;;
35225;SDS011;21813;49.686;21.766;2023-03-22T06:50:09;65.15;;;28.48;;
35225;SDS011;21813;49.686;21.766;2023-03-22T06:52:36;62.15;;;31.15;;
35225;SDS011;21813;49.686;21.766;2023-03-22T06:55:02;62.00;;;28.65;;
35225;SDS011;21813;49.686;21.766;2023-03-22T06:57:30;59.42;;;28.77;;
35225;SDS011;21813;49.686;21.766;2023-03-22T06:59:55;59.03;;;28.63;;
35225;SDS011;21813;49.686;21.766;2023-03-22T07:02:22;56.30;;;28.40;;
35225;SDS011;21813;49.686;21.766;2023-03-22T07:04:50;58.25;;;27.98;;
35225;SDS011;21813;49.686;21.766;2023-03-22T07:07:17;56.83;;;27.55;;
35225;SDS011;21813;49.686;21.766;2023-03-22T07:09:43;62.28;;;29.77;;
35225;SDS011;21813;49.686;21.766;2023-03-22T07:12:10;60.70;;;28.70;;
35225;SDS011;21813;49.686;21.766;2023-03-22T07:14:36;61.63;;;28.60;;
35225;SDS011;21813;49.686;21.766;2023-03-22T07:17:03;54.88;;;27.48;;
35225;SDS011;21813;49.686;21.766;2023-03-22T07:19:28;59.05;;;27.73;;
35225;SDS011;21813;49.686;21.766;2023-03-22T07:21:56;57.67;;;28.10;;
35225;SDS011;21813;49.686;21.766;2023-03-22T07:24:22;53.58;;;26.17;;
35225;SDS011;21813;49.686;21.766;2023-03-22T07:26:49;52.10;;;26.75;;
35225;SDS011;21813;49.686;21.766;2023-03-22T07:29:15;45.75;;;25.48;;
35225;SDS011;21813;49.686;21.766;2023-03-22T07:31:44;46.80;;;26.08;;
35225;SDS011;21813;49.686;21.766;2023-03-22T07:34:10;46.67;;;24.58;;
35225;SDS011;21813;49.686;21.766;2023-03-22T07:36:38;42.47;;;23.27;;
35225;SDS011;21813;49.686;21.766;2023-03-22T07:39:04;40.33;;;22.17;;
35225;SDS011;21813;49.686;21.766;2023-03-22T07:41:31;40.72;;;22.05;;
35225;SDS011;21813;49.686;21.766;2023-03-22T07:43:57;42.03;;;22.90;;
35225;SDS011;21813;49.686;21.766;2023-03-22T07:46:22;36.15;;;20.85;;
35225;SDS011;21813;49.686;21.766;2023-03-22T07:48:48;33.10;;;19.58;;
35225;SDS011;21813;49.686;21.766;2023-03-22T07:51:15;30.50;;;17.95;;
35225;SDS011;21813;49.686;21.766;2023-03-22T07:53:41;32.03;;;17.83;;
35225;SDS011;21813;49.686;21.766;2023-03-22T07:56:07;28.85;;;17.58;;
35225;SDS011;21813;49.686;21.766;2023-03-22T07:58:33;28.98;;;18.50;;
35225;SDS011;21813;49.686;21.766;2023-03-22T08:01:06;30.58;;;17.33;;
35225;SDS011;21813;49.686;21.766;2023-03-22T08:03:35;24.70;;;16.50;;
35225;SDS011;21813;49.686;21.766;2023-03-22T08:06:02;25.75;;;16.38;;
35225;SDS011;21813;49.686;21.766;2023-03-22T08:08:32;24.67;;;15.57;;
35225;SDS011;21813;49.686;21.766;2023-03-22T08:11:00;23.25;;;15.40;;
35225;SDS011;21813;49.686;21.766;2023-03-22T08:13:25;25.15;;;15.68;;
35225;SDS011;21813;49.686;21.766;2023-03-22T08:15:52;23.75;;;15.45;;
35225;SDS011;21813;49.686;21.766;2023-03-22T08:18:18;26.08;;;15.13;;
35225;SDS011;21813;49.686;21.766;2023-03-22T08:20:44;24.63;;;14.98;;
35225;SDS011;21813;49.686;21.766;2023-03-22T08:23:10;23.25;;;16.08;;
35225;SDS011;21813;49.686;21.766;2023-03-22T08:25:41;23.48;;;16.13;;
35225;SDS011;21813;49.686;21.766;2023-03-22T08:28:08;27.38;;;17.23;;
35225;SDS011;21813;49.686;21.766;2023-03-22T08:30:35;23.80;;;15.73;;
35225;SDS011;21813;49.686;21.766;2023-03-22T08:33:01;20.33;;;12.73;;
35225;SDS011;21813;49.686;21.766;2023-03-22T08:35:28;21.10;;;13.88;;
35225;SDS011;21813;49.686;21.766;2023-03-22T08:37:54;20.85;;;14.07;;
35225;SDS011;21813;49.686;21.766;2023-03-22T08:40:21;18.95;;;13.13;;
35225;SDS011;21813;49.686;21.766;2023-03-22T08:42:47;16.88;;;10.82;;
35225;SDS011;21813;49.686;21.766;2023-03-22T08:45:15;16.50;;;10.77;;
35225;SDS011;21813;49.686;21.766;2023-03-22T08:47:41;21.65;;;11.95;;
35225;SDS011;21813;49.686;21.766;2023-03-22T08:50:09;15.88;;;10.20;;
35225;SDS011;21813;49.686;21.766;2023-03-22T08:52:36;15.02;;;10.13;;
35225;SDS011;21813;49.686;21.766;2023-03-22T08:55:03;14.77;;;10.32;;
35225;SDS011;21813;49.686;21.766;2023-03-22T08:57:30;15.10;;;9.57;;
35225;SDS011;21813;49.686;21.766;2023-03-22T08:59:57;13.38;;;8.32;;
35225;SDS011;21813;49.686;21.766;2023-03-22T09:02:23;13.52;;;7.57;;
35225;SDS011;21813;49.686;21.766;2023-03-22T09:04:49;12.70;;;8.90;;
35225;SDS011;21813;49.686;21.766;2023-03-22T09:07:15;19.58;;;10.27;;
35225;SDS011;21813;49.686;21.766;2023-03-22T09:09:45;12.93;;;9.65;;
35225;SDS011;21813;49.686;21.766;2023-03-22T09:12:11;14.27;;;9.52;;
35225;SDS011;21813;49.686;21.766;2023-03-22T09:14:38;14.82;;;9.13;;
35225;SDS011;21813;49.686;21.766;2023-03-22T09:17:04;11.18;;;8.27;;
35225;SDS011;21813;49.686;21.766;2023-03-22T09:19:32;15.00;;;9.02;;
35225;SDS011;21813;49.686;21.766;2023-03-22T09:21:57;12.48;;;8.10;;
35225;SDS011;21813;49.686;21.766;2023-03-22T09:24:24;12.70;;;8.10;;
35225;SDS011;21813;49.686;21.766;2023-03-22T09:26:50;10.07;;;6.63;;
35225;SDS011;21813;49.686;21.766;2023-03-22T09:29:16;11.02;;;7.00;;
35225;SDS011;21813;49.686;21.766;2023-03-22T09:31:43;9.77;;;6.88;;
35225;SDS011;21813;49.686;21.766;2023-03-22T09:34:13;9.32;;;5.97;;
35225;SDS011;21813;49.686;21.766;2023-03-22T09:36:39;5.32;;;4.13;;
35225;SDS011;21813;49.686;21.766;2023-03-22T09:39:06;6.82;;;4.47;;
35225;SDS011;21813;49.686;21.766;2023-03-22T09:41:38;10.52;;;6.85;;
35225;SDS011;21813;49.686;21.766;2023-03-22T09:44:14;9.00;;;6.82;;
35225;SDS011;21813;49.686;21.766;2023-03-22T09:46:49;9.07;;;6.80;;
35225;SDS011;21813;49.686;21.766;2023-03-22T09:49:19;9.13;;;7.47;;
35225;SDS011;21813;49.686;21.766;2023-03-22T09:51:51;9.55;;;7.25;;
35225;SDS011;21813;49.686;21.766;2023-03-22T09:54:33;9.63;;;6.32;;
35225;SDS011;21813;49.686;21.766;2023-03-22T10:08:13;9.15;;;6.50;;
35225;SDS011;21813;49.686;21.766;2023-03-22T10:11:03;8.95;;;6.72;;
35225;SDS011;21813;49.686;21.766;2023-03-22T10:13:44;10.65;;;6.60;;
35225;SDS011;21813;49.686;21.766;2023-03-22T10:16:21;10.55;;;6.70;;
35225;SDS011;21813;49.686;21.766;2023-03-22T10:18:51;9.68;;;7.10;;
35225;SDS011;21813;49.686;21.766;2023-03-22T10:21:26;9.50;;;7.03;;
35225;SDS011;21813;49.686;21.766;2023-03-22T10:23:59;11.20;;;7.88;;
35225;SDS011;21813;49.686;21.766;2023-03-22T10:26:43;11.23;;;7.45;;
35225;SDS011;21813;49.686;21.766;2023-03-22T10:29:21;9.27;;;7.03;;
35225;SDS011;21813;49.686;21.766;2023-03-22T10:31:53;11.20;;;7.53;;
35225;SDS011;21813;49.686;21.766;2023-03-22T10:37:20;11.48;;;8.00;;
35225;SDS011;21813;49.686;21.766;2023-03-22T10:39:56;10.30;;;7.47;;
35225;SDS011;21813;49.686;21.766;2023-03-22T10:42:26;10.93;;;7.18;;
35225;SDS011;21813;49.686;21.766;2023-03-22T10:45:02;10.20;;;7.40;;
35225;SDS011;21813;49.686;21.766;2023-03-22T10:47:37;10.52;;;7.50;;
35225;SDS011;21813;49.686;21.766;2023-03-22T10:50:08;11.15;;;6.70;;
35225;SDS011;21813;49.686;21.766;2023-03-22T10:55:28;7.63;;;5.75;;
35225;SDS011;21813;49.686;21.766;2023-03-22T10:57:59;6.57;;;5.28;;
35225;SDS011;21813;49.686;21.766;2023-03-22T11:01:04;8.18;;;6.15;;
35225;SDS011;21813;49.686;21.766;2023-03-22T11:11:22;9.38;;;6.50;;
35225;SDS011;21813;49.686;21.766;2023-03-22T11:14:03;8.57;;;5.95;;
35225;SDS011;21813;49.686;21.766;2023-03-22T11:16:39;8.82;;;5.70;;
35225;SDS011;21813;49.686;21.766;2023-03-22T11:19:17;8.35;;;6.03;;
35225;SDS011;21813;49.686;21.766;2023-03-22T11:21:50;9.25;;;6.13;;
35225;SDS011;21813;49.686;21.766;2023-03-22T11:24:16;9.07;;;5.45;;
35225;SDS011;21813;49.686;21.766;2023-03-22T11:26:43;6.97;;;5.35;;
35225;SDS011;21813;49.686;21.766;2023-03-22T11:29:41;9.32;;;5.15;;
35225;SDS011;21813;49.686;21.766;2023-03-22T11:32:29;5.60;;;4.78;;
35225;SDS011;21813;49.686;21.766;2023-03-22T11:34:59;5.80;;;4.78;;
35225;SDS011;21813;49.686;21.766;2023-03-22T11:37:27;5.43;;;4.45;;
35225;SDS011;21813;49.686;21.766;2023-03-22T11:40:02;6.10;;;4.80;;
35225;SDS011;21813;49.686;21.766;2023-03-22T11:42:31;8.88;;;5.53;;
35225;SDS011;21813;49.686;21.766;2023-03-22T11:45:00;6.40;;;5.00;;
35225;SDS011;21813;49.686;21.766;2023-03-22T11:47:26;7.40;;;5.43;;
35225;SDS011;21813;49.686;21.766;2023-03-22T11:50:02;6.28;;;4.80;;
35225;SDS011;21813;49.686;21.766;2023-03-22T11:52:30;6.13;;;4.63;;
35225;SDS011;21813;49.686;21.766;2023-03-22T11:54:57;5.85;;;4.88;;
35225;SDS011;21813;49.686;21.766;2023-03-22T11:57:26;5.72;;;4.30;;
35225;SDS011;21813;49.686;21.766;2023-03-22T12:00:02;5.78;;;4.07;;
35225;SDS011;21813;49.686;21.766;2023-03-22T12:02:54;5.87;;;4.33;;
35225;SDS011;21813;49.686;21.766;2023-03-22T12:05:24;5.35;;;3.67;;
35225;SDS011;21813;49.686;21.766;2023-03-22T12:07:59;6.53;;;3.78;;
35225;SDS011;21813;49.686;21.766;2023-03-22T12:10:41;4.90;;;3.47;;
35225;SDS011;21813;49.686;21.766;2023-03-22T12:16:06;6.45;;;3.50;;
35225;SDS011;21813;49.686;21.766;2023-03-22T12:18:40;5.20;;;3.22;;
35225;SDS011;21813;49.686;21.766;2023-03-22T12:21:13;4.53;;;3.70;;
35225;SDS011;21813;49.686;21.766;2023-03-22T12:23:40;4.90;;;3.35;;
35225;SDS011;21813;49.686;21.766;2023-03-22T12:31:39;4.55;;;3.33;;
35225;SDS011;21813;49.686;21.766;2023-03-22T12:34:12;6.20;;;3.60;;
35225;SDS011;21813;49.686;21.766;2023-03-22T12:36:43;4.38;;;3.65;;
35225;SDS011;21813;49.686;21.766;2023-03-22T12:39:30;6.70;;;3.90;;
35225;SDS011;21813;49.686;21.766;2023-03-22T12:44:42;3.90;;;3.50;;
35225;SDS011;21813;49.686;21.766;2023-03-22T12:47:14;6.55;;;4.03;;
35225;SDS011;21813;49.686;21.766;2023-03-22T12:50:00;4.63;;;3.67;;
35225;SDS011;21813;49.686;21.766;2023-03-22T12:52:49;7.78;;;3.58;;
35225;SDS011;21813;49.686;21.766;2023-03-22T12:55:22;5.13;;;3.58;;
35225;SDS011;21813;49.686;21.766;2023-03-22T12:57:52;4.80;;;3.50;;
35225;SDS011;21813;49.686;21.766;2023-03-22T13:00:24;5.13;;;3.72;;
35225;SDS011;21813;49.686;21.766;2023-03-22T13:03:17;4.80;;;3.45;;
35225;SDS011;21813;49.686;21.766;2023-03-22T13:05:52;4.90;;;3.85;;
35225;SDS011;21813;49.686;21.766;2023-03-22T13:08:26;4.15;;;3.30;;
35225;SDS011;21813;49.686;21.766;2023-03-22T13:11:37;4.78;;;3.17;;
35225;SDS011;21813;49.686;21.766;2023-03-22T13:14:10;5.00;;;3.65;;
35225;SDS011;21813;49.686;21.766;2023-03-22T13:16:48;3.83;;;3.22;;
35225;SDS011;21813;49.686;21.766;2023-03-22T13:23:23;4.25;;;3.03;;
35225;SDS011;21813;49.686;21.766;2023-03-22T13:25:58;3.75;;;3.10;;
35225;SDS011;21813;49.686;21.766;2023-03-22T13:28:26;4.63;;;3.60;;
35225;SDS011;21813;49.686;21.766;2023-03-22T13:30:55;5.22;;;3.28;;
35225;SDS011;21813;49.686;21.766;2023-03-22T13:33:28;6.38;;;3.80;;
35225;SDS011;21813;49.686;21.766;2023-03-22T13:35:58;4.53;;;3.50;;
35225;SDS011;21813;49.686;21.766;2023-03-22T13:38:31;3.88;;;3.40;;
35225;SDS011;21813;49.686;21.766;2023-03-22T13:43:51;4.53;;;3.22;;
35225;SDS011;21813;49.686;21.766;2023-03-22T13:51:14;5.32;;;3.38;;
35225;SDS011;21813;49.686;21.766;2023-03-22T13:53:55;6.10;;;3.58;;
35225;SDS011;21813;49.686;21.766;2023-03-22T14:01:59;4.50;;;3.22;;
35225;SDS011;21813;49.686;21.766;2023-03-22T14:10:17;4.25;;;2.67;;
35225;SDS011;21813;49.686;21.766;2023-03-22T14:16:14;4.13;;;3.13;;
35225;SDS011;21813;49.686;21.766;2023-03-22T14:20:49;5.93;;;3.28;;
35225;SDS011;21813;49.686;21.766;2023-03-22T14:23:55;7.88;;;4.10;;
35225;SDS011;21813;49.686;21.766;2023-03-22T14:26:21;6.38;;;4.55;;
35225;SDS011;21813;49.686;21.766;2023-03-22T14:28:52;7.25;;;5.03;;
35225;SDS011;21813;49.686;21.766;2023-03-22T14:31:22;7.05;;;5.03;;
35225;SDS011;21813;49.686;21.766;2023-03-22T14:33:53;5.95;;;3.83;;
35225;SDS011;21813;49.686;21.766;2023-03-22T14:36:20;4.53;;;3.60;;
35225;SDS011;21813;49.686;21.766;2023-03-22T14:38:49;6.45;;;3.90;;
35225;SDS011;21813;49.686;21.766;2023-03-22T14:41:17;6.80;;;4.68;;
35225;SDS011;21813;49.686;21.766;2023-03-22T14:43:49;8.07;;;3.60;;
35225;SDS011;21813;49.686;21.766;2023-03-22T14:49:04;2.85;;;2.42;;
35225;SDS011;21813;49.686;21.766;2023-03-22T14:51:40;5.18;;;2.60;;
35225;SDS011;21813;49.686;21.766;2023-03-22T14:54:09;5.80;;;2.90;;
35225;SDS011;21813;49.686;21.766;2023-03-22T14:56:41;4.45;;;2.92;;
35225;SDS011;21813;49.686;21.766;2023-03-22T14:59:10;4.97;;;3.00;;
35225;SDS011;21813;49.686;21.766;2023-03-22T15:01:50;5.72;;;4.32;;
35225;SDS011;21813;49.686;21.766;2023-03-22T15:04:19;7.15;;;4.32;;
35225;SDS011;21813;49.686;21.766;2023-03-22T15:06:50;5.95;;;4.18;;
35225;SDS011;21813;49.686;21.766;2023-03-22T15:09:21;5.45;;;3.42;;
35225;SDS011;21813;49.686;21.766;2023-03-22T15:11:50;4.88;;;3.60;;
35225;SDS011;21813;49.686;21.766;2023-03-22T15:14:20;5.25;;;3.97;;
35225;SDS011;21813;49.686;21.766;2023-03-22T15:16:47;3.95;;;3.25;;
35225;SDS011;21813;49.686;21.766;2023-03-22T15:19:17;5.25;;;3.80;;
35225;SDS011;21813;49.686;21.766;2023-03-22T15:22:00;5.07;;;3.88;;
35225;SDS011;21813;49.686;21.766;2023-03-22T15:24:36;5.32;;;3.53;;
35225;SDS011;21813;49.686;21.766;2023-03-22T15:27:04;5.43;;;3.30;;
35225;SDS011;21813;49.686;21.766;2023-03-22T15:29:39;6.25;;;3.25;;
35225;SDS011;21813;49.686;21.766;2023-03-22T15:32:17;5.03;;;3.72;;
35225;SDS011;21813;49.686;21.766;2023-03-22T15:34:48;4.57;;;3.83;;
35225;SDS011;21813;49.686;21.766;2023-03-22T15:37:24;10.82;;;4.70;;
35225;SDS011;21813;49.686;21.766;2023-03-22T15:39:57;4.18;;;3.17;;
35225;SDS011;21813;49.686;21.766;2023-03-22T15:42:34;7.88;;;5.60;;
35225;SDS011;21813;49.686;21.766;2023-03-22T15:45:17;10.18;;;4.43;;
35225;SDS011;21813;49.686;21.766;2023-03-22T15:47:45;8.55;;;4.65;;
35225;SDS011;21813;49.686;21.766;2023-03-22T15:50:17;7.88;;;4.85;;
35225;SDS011;21813;49.686;21.766;2023-03-22T15:52:48;6.97;;;5.05;;
35225;SDS011;21813;49.686;21.766;2023-03-22T15:55:16;11.38;;;6.30;;
35225;SDS011;21813;49.686;21.766;2023-03-22T15:57:46;9.93;;;5.68;;
35225;SDS011;21813;49.686;21.766;2023-03-22T16:00:26;13.50;;;6.30;;
35225;SDS011;21813;49.686;21.766;2023-03-22T16:03:00;7.80;;;5.47;;
35225;SDS011;21813;49.686;21.766;2023-03-22T16:05:46;9.45;;;6.47;;
35225;SDS011;21813;49.686;21.766;2023-03-22T16:08:13;12.00;;;7.38;;
35225;SDS011;21813;49.686;21.766;2023-03-22T16:10:41;9.18;;;6.47;;
35225;SDS011;21813;49.686;21.766;2023-03-22T16:13:18;12.57;;;7.07;;